sensor_id;sensor_type;location;lat;lon;timestamp;pressure;altitude;pressure_sealevel;temperature;humidity
22653;BME280;11493;43.344;26.226;2023-05-23T00:00:18;99004.88;;;14.33;100.00
22653;BME280;11493;43.344;26.226;2023-05-23T00:02:45;99024.59;;;14.31;100.00
22653;BME280;11493;43.344;26.226;2023-05-23T00:05:13;99016.97;;;14.28;100.00
22653;BME280;11493;43.344;26.226;2023-05-23T00:07:41;99010.50;;;14.24;100.00
22653;BME280;11493;43.344;26.226;2023-05-23T00:10:09;99015.34;;;14.27;100.00
22653;BME280;11493;43.344;26.226;2023-05-23T00:12:36;99010.06;;;14.22;100.00
22653;BME280;11493;43.344;26.226;2023-05-23T00:15:08;99019.63;;;14.25;100.00
22653;BME280;11493;43.344;26.226;2023-05-23T00:17:35;99025.16;;;14.25;100.00
22653;BME280;11493;43.344;26.226;2023-05-23T00:20:05;99004.09;;;14.08;100.00
22653;BME280;11493;43.344;26.226;2023-05-23T00:22:35;99027.69;;;14.18;100.00
22653;BME280;11493;43.344;26.226;2023-05-23T00:25:06;99014.94;;;14.01;100.00
22653;BME280;11493;43.344;26.226;2023-05-23T00:27:33;99013.31;;;14.00;100.00
22653;BME280;11493;43.344;26.226;2023-05-23T00:30:01;99026.91;;;14.05;100.00
22653;BME280;11493;43.344;26.226;2023-05-23T00:32:28;99023.91;;;13.98;100.00
22653;BME280;11493;43.344;26.226;2023-05-23T00:34:55;99010.09;;;13.98;100.00
22653;BME280;11493;43.344;26.226;2023-05-23T00:37:22;99018.50;;;14.01;100.00
22653;BME280;11493;43.344;26.226;2023-05-23T00:39:49;99001.78;;;13.86;100.00
22653;BME280;11493;43.344;26.226;2023-05-23T00:42:16;99026.44;;;13.91;100.00
22653;BME280;11493;43.344;26.226;2023-05-23T00:44:43;99015.13;;;13.84;100.00
22653;BME280;11493;43.344;26.226;2023-05-23T00:47:11;99031.16;;;13.90;100.00
22653;BME280;11493;43.344;26.226;2023-05-23T00:49:39;99019.41;;;13.81;100.00
22653;BME280;11493;43.344;26.226;2023-05-23T00:52:07;99013.75;;;13.77;100.00
22653;BME280;11493;43.344;26.226;2023-05-23T00:54:35;99012.59;;;13.78;100.00
22653;BME280;11493;43.344;26.226;2023-05-23T00:57:02;99010.06;;;13.73;100.00
22653;BME280;11493;43.344;26.226;2023-05-23T00:59:30;99017.66;;;13.76;100.00
22653;BME280;11493;43.344;26.226;2023-05-23T01:01:59;99014.22;;;13.79;100.00
22653;BME280;11493;43.344;26.226;2023-05-23T01:04:26;99018.00;;;13.75;100.00
22653;BME280;11493;43.344;26.226;2023-05-23T01:06:55;99019.63;;;13.76;100.00
22653;BME280;11493;43.344;26.226;2023-05-23T01:09:23;99021.13;;;13.73;100.00
22653;BME280;11493;43.344;26.226;2023-05-23T01:12:37;99020.06;;;13.66;100.00
22653;BME280;11493;43.344;26.226;2023-05-23T01:14:55;99017.72;;;13.56;100.00
22653;BME280;11493;43.344;26.226;2023-05-23T01:18:21;99018.28;;;13.49;100.00
22653;BME280;11493;43.344;26.226;2023-05-23T01:20:24;99018.97;;;13.46;100.00
22653;BME280;11493;43.344;26.226;2023-05-23T01:26:26;99023.34;;;13.47;100.00
22653;BME280;11493;43.344;26.226;2023-05-23T01:28:37;99019.53;;;13.39;100.00
22653;BME280;11493;43.344;26.226;2023-05-23T01:31:07;99025.41;;;13.38;100.00
22653;BME280;11493;43.344;26.226;2023-05-23T01:33:39;99023.81;;;13.37;100.00
22653;BME280;11493;43.344;26.226;2023-05-23T01:36:07;99007.53;;;13.23;100.00
22653;BME280;11493;43.344;26.226;2023-05-23T01:38:35;99018.72;;;13.27;100.00
22653;BME280;11493;43.344;26.226;2023-05-23T01:41:02;99023.16;;;13.19;100.00
22653;BME280;11493;43.344;26.226;2023-05-23T01:43:30;99024.66;;;13.17;100.00
22653;BME280;11493;43.344;26.226;2023-05-23T01:45:57;99019.16;;;13.08;100.00
22653;BME280;11493;43.344;26.226;2023-05-23T01:48:27;99016.00;;;12.97;100.00
22653;BME280;11493;43.344;26.226;2023-05-23T01:50:56;99007.25;;;12.95;100.00
22653;BME280;11493;43.344;26.226;2023-05-23T01:53:25;99016.16;;;13.01;100.00
22653;BME280;11493;43.344;26.226;2023-05-23T01:55:53;99019.84;;;13.05;100.00
22653;BME280;11493;43.344;26.226;2023-05-23T01:58:20;99009.34;;;12.98;100.00
22653;BME280;11493;43.344;26.226;2023-05-23T02:00:48;99022.47;;;13.01;100.00
22653;BME280;11493;43.344;26.226;2023-05-23T02:03:15;99021.00;;;13.04;100.00
22653;BME280;11493;43.344;26.226;2023-05-23T02:05:43;99013.50;;;13.04;100.00
22653;BME280;11493;43.344;26.226;2023-05-23T02:08:10;99007.66;;;13.06;100.00
22653;BME280;11493;43.344;26.226;2023-05-23T02:10:37;99014.66;;;13.03;100.00
22653;BME280;11493;43.344;26.226;2023-05-23T02:13:04;99018.50;;;13.11;100.00
22653;BME280;11493;43.344;26.226;2023-05-23T02:15:31;99025.47;;;13.17;100.00
22653;BME280;11493;43.344;26.226;2023-05-23T02:17:58;99024.91;;;13.24;100.00
22653;BME280;11493;43.344;26.226;2023-05-23T02:20:25;99022.88;;;13.33;100.00
22653;BME280;11493;43.344;26.226;2023-05-23T02:22:52;99034.16;;;13.40;100.00
22653;BME280;11493;43.344;26.226;2023-05-23T02:25:19;99029.34;;;13.37;100.00
22653;BME280;11493;43.344;26.226;2023-05-23T02:27:46;99026.09;;;13.35;100.00
22653;BME280;11493;43.344;26.226;2023-05-23T02:30:13;99036.34;;;13.46;100.00
22653;BME280;11493;43.344;26.226;2023-05-23T02:32:41;99026.00;;;13.43;100.00
22653;BME280;11493;43.344;26.226;2023-05-23T02:35:08;99019.31;;;13.44;100.00
22653;BME280;11493;43.344;26.226;2023-05-23T02:37:36;99036.50;;;13.50;100.00
22653;BME280;11493;43.344;26.226;2023-05-23T02:40:04;99037.63;;;13.49;100.00
22653;BME280;11493;43.344;26.226;2023-05-23T02:42:35;99019.88;;;13.38;100.00
22653;BME280;11493;43.344;26.226;2023-05-23T02:45:02;99024.72;;;13.41;100.00
22653;BME280;11493;43.344;26.226;2023-05-23T02:47:29;99037.16;;;13.47;100.00
22653;BME280;11493;43.344;26.226;2023-05-23T02:49:57;99038.09;;;13.51;100.00
22653;BME280;11493;43.344;26.226;2023-05-23T02:52:24;99026.00;;;13.43;100.00
22653;BME280;11493;43.344;26.226;2023-05-23T02:54:52;99030.72;;;13.43;100.00
22653;BME280;11493;43.344;26.226;2023-05-23T02:57:19;99041.34;;;13.53;100.00
22653;BME280;11493;43.344;26.226;2023-05-23T02:59:46;99039.25;;;13.50;100.00
22653;BME280;11493;43.344;26.226;2023-05-23T03:02:13;99039.84;;;13.56;100.00
22653;BME280;11493;43.344;26.226;2023-05-23T03:04:40;99033.03;;;13.53;100.00
22653;BME280;11493;43.344;26.226;2023-05-23T03:07:07;99048.25;;;13.59;100.00
22653;BME280;11493;43.344;26.226;2023-05-23T03:09:53;99046.09;;;13.65;100.00
22653;BME280;11493;43.344;26.226;2023-05-23T03:12:21;99038.59;;;13.65;100.00
22653;BME280;11493;43.344;26.226;2023-05-23T03:14:48;99029.63;;;13.68;100.00
22653;BME280;11493;43.344;26.226;2023-05-23T03:17:15;99040.84;;;13.84;100.00
22653;BME280;11493;43.344;26.226;2023-05-23T03:19:42;99051.22;;;13.99;100.00
22653;BME280;11493;43.344;26.226;2023-05-23T03:22:09;99042.13;;;13.99;100.00
22653;BME280;11493;43.344;26.226;2023-05-23T03:24:36;99034.28;;;14.01;100.00
22653;BME280;11493;43.344;26.226;2023-05-23T03:27:04;99031.88;;;13.99;100.00
22653;BME280;11493;43.344;26.226;2023-05-23T03:29:31;99055.59;;;14.12;100.00
22653;BME280;11493;43.344;26.226;2023-05-23T03:31:58;99051.78;;;14.17;100.00
22653;BME280;11493;43.344;26.226;2023-05-23T03:34:26;99041.41;;;14.14;100.00
22653;BME280;11493;43.344;26.226;2023-05-23T03:36:53;99051.78;;;14.29;100.00
22653;BME280;11493;43.344;26.226;2023-05-23T03:39:20;99050.41;;;14.35;100.00
22653;BME280;11493;43.344;26.226;2023-05-23T03:41:48;99045.13;;;14.42;100.00
22653;BME280;11493;43.344;26.226;2023-05-23T03:44:15;99052.97;;;14.53;100.00
22653;BME280;11493;43.344;26.226;2023-05-23T03:46:43;99057.34;;;14.54;100.00
22653;BME280;11493;43.344;26.226;2023-05-23T03:49:11;99061.84;;;14.58;100.00
22653;BME280;11493;43.344;26.226;2023-05-23T03:51:38;99053.31;;;14.63;100.00
22653;BME280;11493;43.344;26.226;2023-05-23T03:54:05;99065.28;;;14.79;100.00
22653;BME280;11493;43.344;26.226;2023-05-23T03:56:32;99061.31;;;14.93;100.00
22653;BME280;11493;43.344;26.226;2023-05-23T03:58:59;99056.88;;;15.04;100.00
22653;BME280;11493;43.344;26.226;2023-05-23T04:01:27;99058.16;;;15.06;100.00
22653;BME280;11493;43.344;26.226;2023-05-23T04:03:54;99061.34;;;15.21;100.00
22653;BME280;11493;43.344;26.226;2023-05-23T04:06:25;99068.22;;;15.39;100.00
22653;BME280;11493;43.344;26.226;2023-05-23T04:08:52;99082.31;;;15.62;100.00
22653;BME280;11493;43.344;26.226;2023-05-23T04:11:19;99075.03;;;15.85;100.00
22653;BME280;11493;43.344;26.226;2023-05-23T04:13:48;99075.13;;;15.89;100.00
22653;BME280;11493;43.344;26.226;2023-05-23T04:16:18;99060.09;;;15.90;100.00
22653;BME280;11493;43.344;26.226;2023-05-23T04:18:45;99062.97;;;16.09;100.00
22653;BME280;11493;43.344;26.226;2023-05-23T04:21:14;99076.13;;;16.12;100.00
22653;BME280;11493;43.344;26.226;2023-05-23T04:23:56;99077.75;;;16.13;100.00
22653;BME280;11493;43.344;26.226;2023-05-23T04:26:24;99065.47;;;16.14;100.00
22653;BME280;11493;43.344;26.226;2023-05-23T04:28:52;99055.09;;;16.11;100.00
22653;BME280;11493;43.344;26.226;2023-05-23T04:31:20;99071.31;;;16.25;100.00
22653;BME280;11493;43.344;26.226;2023-05-23T04:33:50;99084.63;;;16.35;100.00
22653;BME280;11493;43.344;26.226;2023-05-23T04:36:19;99074.13;;;16.44;100.00
22653;BME280;11493;43.344;26.226;2023-05-23T04:38:50;99070.44;;;16.56;100.00
22653;BME280;11493;43.344;26.226;2023-05-23T04:41:18;99063.66;;;16.69;100.00
22653;BME280;11493;43.344;26.226;2023-05-23T04:44:08;99075.53;;;16.85;100.00
22653;BME280;11493;43.344;26.226;2023-05-23T04:46:44;99074.53;;;16.93;100.00
22653;BME280;11493;43.344;26.226;2023-05-23T04:49:16;99073.16;;;17.03;100.00
22653;BME280;11493;43.344;26.226;2023-05-23T04:51:43;99073.06;;;16.99;100.00
22653;BME280;11493;43.344;26.226;2023-05-23T04:54:25;99087.16;;;17.10;100.00
22653;BME280;11493;43.344;26.226;2023-05-23T04:56:54;99081.25;;;17.12;100.00
22653;BME280;11493;43.344;26.226;2023-05-23T04:59:22;99085.00;;;17.19;100.00
22653;BME280;11493;43.344;26.226;2023-05-23T05:01:49;99074.03;;;17.07;100.00
22653;BME280;11493;43.344;26.226;2023-05-23T05:04:18;99085.97;;;17.07;100.00
22653;BME280;11493;43.344;26.226;2023-05-23T05:06:45;99091.50;;;17.07;100.00
22653;BME280;11493;43.344;26.226;2023-05-23T05:09:14;99086.09;;;16.95;100.00
22653;BME280;11493;43.344;26.226;2023-05-23T05:11:42;99080.25;;;17.00;100.00
22653;BME280;11493;43.344;26.226;2023-05-23T05:14:09;99072.72;;;17.01;100.00
22653;BME280;11493;43.344;26.226;2023-05-23T05:16:36;99077.47;;;17.00;100.00
22653;BME280;11493;43.344;26.226;2023-05-23T05:19:04;99080.41;;;17.07;100.00
22653;BME280;11493;43.344;26.226;2023-05-23T05:21:32;99074.88;;;17.11;100.00
22653;BME280;11493;43.344;26.226;2023-05-23T05:23:59;99084.47;;;17.14;100.00
22653;BME280;11493;43.344;26.226;2023-05-23T05:26:27;99083.38;;;17.18;100.00
22653;BME280;11493;43.344;26.226;2023-05-23T05:28:54;99084.78;;;17.28;100.00
22653;BME280;11493;43.344;26.226;2023-05-23T05:31:22;99088.50;;;17.35;100.00
22653;BME280;11493;43.344;26.226;2023-05-23T05:33:50;99089.47;;;17.43;100.00
22653;BME280;11493;43.344;26.226;2023-05-23T05:36:18;99094.28;;;17.46;100.00
22653;BME280;11493;43.344;26.226;2023-05-23T05:38:46;99103.09;;;17.48;100.00
22653;BME280;11493;43.344;26.226;2023-05-23T05:41:15;99102.78;;;17.53;100.00
22653;BME280;11493;43.344;26.226;2023-05-23T05:43:48;99101.75;;;17.61;100.00
22653;BME280;11493;43.344;26.226;2023-05-23T05:46:15;99102.19;;;17.63;100.00
22653;BME280;11493;43.344;26.226;2023-05-23T05:48:43;99113.94;;;17.72;100.00
22653;BME280;11493;43.344;26.226;2023-05-23T05:51:12;99106.53;;;17.80;100.00
22653;BME280;11493;43.344;26.226;2023-05-23T05:53:40;99098.66;;;17.86;100.00
22653;BME280;11493;43.344;26.226;2023-05-23T05:56:07;99108.47;;;17.99;100.00
22653;BME280;11493;43.344;26.226;2023-05-23T05:58:37;99106.19;;;18.04;100.00
22653;BME280;11493;43.344;26.226;2023-05-23T06:01:06;99088.97;;;17.99;100.00
22653;BME280;11493;43.344;26.226;2023-05-23T06:03:34;99109.72;;;18.24;100.00
22653;BME280;11493;43.344;26.226;2023-05-23T06:06:01;99111.50;;;18.36;100.00
22653;BME280;11493;43.344;26.226;2023-05-23T06:08:29;99103.97;;;18.36;100.00
22653;BME280;11493;43.344;26.226;2023-05-23T06:10:56;99104.50;;;18.46;100.00
22653;BME280;11493;43.344;26.226;2023-05-23T06:13:24;99102.09;;;18.44;100.00
22653;BME280;11493;43.344;26.226;2023-05-23T06:15:52;99100.28;;;18.55;100.00
22653;BME280;11493;43.344;26.226;2023-05-23T06:18:20;99105.50;;;18.57;100.00
22653;BME280;11493;43.344;26.226;2023-05-23T06:20:49;99096.47;;;18.41;100.00
22653;BME280;11493;43.344;26.226;2023-05-23T06:23:19;99096.78;;;18.35;100.00
22653;BME280;11493;43.344;26.226;2023-05-23T06:25:46;99108.59;;;18.29;100.00
22653;BME280;11493;43.344;26.226;2023-05-23T06:28:13;99096.59;;;18.25;100.00
22653;BME280;11493;43.344;26.226;2023-05-23T06:30:41;99098.88;;;18.19;100.00
22653;BME280;11493;43.344;26.226;2023-05-23T06:33:08;99094.50;;;18.18;100.00
22653;BME280;11493;43.344;26.226;2023-05-23T06:35:35;99083.78;;;18.20;100.00
22653;BME280;11493;43.344;26.226;2023-05-23T06:38:02;99079.69;;;18.37;100.00
22653;BME280;11493;43.344;26.226;2023-05-23T06:40:30;99074.31;;;18.48;100.00
22653;BME280;11493;43.344;26.226;2023-05-23T06:42:57;99075.75;;;18.64;100.00
22653;BME280;11493;43.344;26.226;2023-05-23T06:45:59;99079.84;;;18.97;100.00
22653;BME280;11493;43.344;26.226;2023-05-23T06:48:27;99079.75;;;19.20;100.00
22653;BME280;11493;43.344;26.226;2023-05-23T06:50:54;99079.91;;;19.34;100.00
22653;BME280;11493;43.344;26.226;2023-05-23T06:53:22;99088.56;;;19.55;100.00
22653;BME280;11493;43.344;26.226;2023-05-23T06:55:49;99092.75;;;19.72;98.93
22653;BME280;11493;43.344;26.226;2023-05-23T06:58:21;99092.53;;;19.88;99.37
22653;BME280;11493;43.344;26.226;2023-05-23T07:00:53;99095.47;;;20.02;98.15
22653;BME280;11493;43.344;26.226;2023-05-23T07:03:30;99088.72;;;20.07;97.25
22653;BME280;11493;43.344;26.226;2023-05-23T07:06:01;99085.22;;;20.17;95.42
22653;BME280;11493;43.344;26.226;2023-05-23T07:08:29;99091.38;;;20.33;94.22
22653;BME280;11493;43.344;26.226;2023-05-23T07:10:58;99080.38;;;20.51;92.70
22653;BME280;11493;43.344;26.226;2023-05-23T07:13:41;99082.16;;;20.80;91.16
22653;BME280;11493;43.344;26.226;2023-05-23T07:16:15;99071.53;;;21.04;89.59
22653;BME280;11493;43.344;26.226;2023-05-23T07:19:04;99067.13;;;21.03;90.56
22653;BME280;11493;43.344;26.226;2023-05-23T07:21:35;99077.31;;;21.32;90.16
22653;BME280;11493;43.344;26.226;2023-05-23T07:24:03;99064.38;;;21.10;87.32
22653;BME280;11493;43.344;26.226;2023-05-23T07:26:30;99071.56;;;21.11;88.13
22653;BME280;11493;43.344;26.226;2023-05-23T07:28:58;99087.59;;;21.21;87.97
22653;BME280;11493;43.344;26.226;2023-05-23T07:31:25;99077.25;;;21.25;86.19
22653;BME280;11493;43.344;26.226;2023-05-23T07:33:56;99078.88;;;21.26;86.64
22653;BME280;11493;43.344;26.226;2023-05-23T07:36:29;99083.69;;;21.29;85.45
22653;BME280;11493;43.344;26.226;2023-05-23T07:39:02;99090.84;;;21.23;85.67
22653;BME280;11493;43.344;26.226;2023-05-23T07:41:30;99085.91;;;21.06;86.58
22653;BME280;11493;43.344;26.226;2023-05-23T07:43:57;99094.28;;;21.02;88.23
22653;BME280;11493;43.344;26.226;2023-05-23T07:46:24;99085.06;;;20.98;88.45
22653;BME280;11493;43.344;26.226;2023-05-23T07:48:52;99081.84;;;20.92;89.73
22653;BME280;11493;43.344;26.226;2023-05-23T07:51:19;99074.72;;;21.02;88.91
22653;BME280;11493;43.344;26.226;2023-05-23T07:53:49;99082.31;;;21.02;88.83
22653;BME280;11493;43.344;26.226;2023-05-23T07:56:17;99068.47;;;21.26;88.45
22653;BME280;11493;43.344;26.226;2023-05-23T07:58:45;99068.56;;;21.48;88.43
22653;BME280;11493;43.344;26.226;2023-05-23T08:01:12;99073.78;;;21.53;87.90
22653;BME280;11493;43.344;26.226;2023-05-23T08:04:00;99076.53;;;21.39;87.45
22653;BME280;11493;43.344;26.226;2023-05-23T08:06:34;99086.59;;;21.50;86.29
22653;BME280;11493;43.344;26.226;2023-05-23T08:09:05;99081.78;;;21.54;85.54
22653;BME280;11493;43.344;26.226;2023-05-23T08:11:37;99074.19;;;21.62;85.75
22653;BME280;11493;43.344;26.226;2023-05-23T08:14:05;99063.84;;;21.73;84.79
22653;BME280;11493;43.344;26.226;2023-05-23T08:16:35;99073.09;;;21.98;83.43
22653;BME280;11493;43.344;26.226;2023-05-23T08:19:14;99069.56;;;22.19;82.83
22653;BME280;11493;43.344;26.226;2023-05-23T08:21:42;99081.56;;;22.20;80.21
22653;BME280;11493;43.344;26.226;2023-05-23T08:24:09;99077.56;;;22.32;77.57
22653;BME280;11493;43.344;26.226;2023-05-23T08:26:41;99074.75;;;22.46;74.13
22653;BME280;11493;43.344;26.226;2023-05-23T08:29:10;99066.34;;;22.32;74.35
22653;BME280;11493;43.344;26.226;2023-05-23T08:31:39;99070.38;;;22.23;76.78
22653;BME280;11493;43.344;26.226;2023-05-23T08:34:07;99079.16;;;22.33;76.66
22653;BME280;11493;43.344;26.226;2023-05-23T08:36:36;99073.56;;;22.36;75.14
22653;BME280;11493;43.344;26.226;2023-05-23T08:39:08;99077.97;;;22.19;74.19
22653;BME280;11493;43.344;26.226;2023-05-23T08:41:54;99079.16;;;22.33;74.92
22653;BME280;11493;43.344;26.226;2023-05-23T08:44:21;99072.78;;;22.25;74.28
22653;BME280;11493;43.344;26.226;2023-05-23T08:46:53;99059.94;;;22.35;74.22
22653;BME280;11493;43.344;26.226;2023-05-23T08:49:39;99066.34;;;22.35;74.80
22653;BME280;11493;43.344;26.226;2023-05-23T08:52:10;99073.94;;;22.35;74.63
22653;BME280;11493;43.344;26.226;2023-05-23T08:54:42;99072.78;;;22.25;74.96
22653;BME280;11493;43.344;26.226;2023-05-23T08:57:12;99073.94;;;22.38;75.85
22653;BME280;11493;43.344;26.226;2023-05-23T08:59:45;99075.97;;;22.23;75.40
22653;BME280;11493;43.344;26.226;2023-05-23T09:02:13;99077.97;;;22.19;75.37
22653;BME280;11493;43.344;26.226;2023-05-23T09:04:43;99074.78;;;22.21;75.53
22653;BME280;11493;43.344;26.226;2023-05-23T09:07:17;99075.13;;;22.02;75.05
22653;BME280;11493;43.344;26.226;2023-05-23T09:09:46;99073.56;;;22.22;74.76
22653;BME280;11493;43.344;26.226;2023-05-23T09:12:16;99063.50;;;22.00;73.48
22653;BME280;11493;43.344;26.226;2023-05-23T09:14:46;99061.56;;;22.14;74.70
22653;BME280;11493;43.344;26.226;2023-05-23T09:17:17;99068.38;;;22.20;73.38
22653;BME280;11493;43.344;26.226;2023-05-23T09:19:45;99068.75;;;22.22;73.06
22653;BME280;11493;43.344;26.226;2023-05-23T09:22:25;99072.75;;;22.36;68.29
22653;BME280;11493;43.344;26.226;2023-05-23T09:25:02;99067.53;;;22.45;67.48
22653;BME280;11493;43.344;26.226;2023-05-23T09:27:30;99059.13;;;22.48;66.80
22653;BME280;11493;43.344;26.226;2023-05-23T09:29:57;99062.31;;;22.75;65.89
22653;BME280;11493;43.344;26.226;2023-05-23T09:32:30;99050.69;;;23.02;64.56
22653;BME280;11493;43.344;26.226;2023-05-23T09:34:58;99055.78;;;23.28;64.38
22653;BME280;11493;43.344;26.226;2023-05-23T09:37:38;99051.38;;;23.23;64.37
22653;BME280;11493;43.344;26.226;2023-05-23T09:40:08;99052.59;;;23.26;64.34
22653;BME280;11493;43.344;26.226;2023-05-23T09:42:45;99051.75;;;23.33;62.95
22653;BME280;11493;43.344;26.226;2023-05-23T09:45:14;99049.44;;;23.10;65.66
22653;BME280;11493;43.344;26.226;2023-05-23T09:47:52;99058.97;;;23.30;64.03
22653;BME280;11493;43.344;26.226;2023-05-23T09:50:20;99051.00;;;23.21;64.29
22653;BME280;11493;43.344;26.226;2023-05-23T09:52:48;99048.16;;;23.32;64.49
22653;BME280;11493;43.344;26.226;2023-05-23T09:55:17;99045.72;;;23.34;64.54
22653;BME280;11493;43.344;26.226;2023-05-23T09:57:49;99024.91;;;23.28;64.89
22653;BME280;11493;43.344;26.226;2023-05-23T10:00:19;99037.47;;;22.74;65.13
22653;BME280;11493;43.344;26.226;2023-05-23T10:05:46;99036.66;;;23.02;65.23
22653;BME280;11493;43.344;26.226;2023-05-23T10:13:27;99034.00;;;23.64;63.31
22653;BME280;11493;43.344;26.226;2023-05-23T10:16:22;99033.72;;;24.03;63.82
22653;BME280;11493;43.344;26.226;2023-05-23T10:18:59;99040.88;;;24.15;65.04
22653;BME280;11493;43.344;26.226;2023-05-23T10:21:34;99032.66;;;24.42;63.41
22653;BME280;11493;43.344;26.226;2023-05-23T10:24:04;99035.59;;;24.28;62.60
22653;BME280;11493;43.344;26.226;2023-05-23T10:26:32;99038.28;;;23.79;65.30
22653;BME280;11493;43.344;26.226;2023-05-23T10:29:00;99034.91;;;23.33;65.54
22653;BME280;11493;43.344;26.226;2023-05-23T10:31:28;99026.25;;;22.91;67.49
22653;BME280;11493;43.344;26.226;2023-05-23T10:34:02;99024.63;;;22.98;68.84
22653;BME280;11493;43.344;26.226;2023-05-23T10:41:47;99016.13;;;23.12;67.46
22653;BME280;11493;43.344;26.226;2023-05-23T10:44:25;99013.19;;;23.44;69.04
22653;BME280;11493;43.344;26.226;2023-05-23T10:46:56;99014.00;;;23.44;66.89
22653;BME280;11493;43.344;26.226;2023-05-23T10:52:05;98998.00;;;23.38;63.48
22653;BME280;11493;43.344;26.226;2023-05-23T10:54:34;99004.31;;;23.59;64.67
22653;BME280;11493;43.344;26.226;2023-05-23T10:57:03;99010.88;;;23.28;64.42
22653;BME280;11493;43.344;26.226;2023-05-23T10:59:30;99014.41;;;23.43;63.62
22653;BME280;11493;43.344;26.226;2023-05-23T11:01:58;99024.13;;;23.24;64.23
22653;BME280;11493;43.344;26.226;2023-05-23T11:04:27;99007.44;;;22.81;65.82
22653;BME280;11493;43.344;26.226;2023-05-23T11:06:55;99010.25;;;22.71;66.25
22653;BME280;11493;43.344;26.226;2023-05-23T11:09:23;99001.88;;;22.46;66.63
22653;BME280;11493;43.344;26.226;2023-05-23T11:17:15;99000.91;;;23.13;67.58
22653;BME280;11493;43.344;26.226;2023-05-23T11:20:06;98997.19;;;23.37;64.81
22653;BME280;11493;43.344;26.226;2023-05-23T11:22:35;98999.44;;;23.71;61.86
22653;BME280;11493;43.344;26.226;2023-05-23T11:25:07;98997.97;;;24.07;62.13
22653;BME280;11493;43.344;26.226;2023-05-23T11:27:38;98990.88;;;24.40;61.59
22653;BME280;11493;43.344;26.226;2023-05-23T11:32:36;98991.84;;;24.64;60.92
22653;BME280;11493;43.344;26.226;2023-05-23T11:35:08;98993.50;;;24.58;59.08
22653;BME280;11493;43.344;26.226;2023-05-23T11:37:39;98990.47;;;24.79;58.48
22653;BME280;11493;43.344;26.226;2023-05-23T11:40:26;98986.84;;;24.79;58.73
22653;BME280;11493;43.344;26.226;2023-05-23T11:42:54;98984.75;;;24.86;57.78
22653;BME280;11493;43.344;26.226;2023-05-23T11:45:22;98992.44;;;24.82;54.83
22653;BME280;11493;43.344;26.226;2023-05-23T11:47:50;98994.84;;;24.84;53.45
22653;BME280;11493;43.344;26.226;2023-05-23T11:50:17;98970.97;;;24.62;53.83
22653;BME280;11493;43.344;26.226;2023-05-23T11:52:46;98967.88;;;24.86;52.42
22653;BME280;11493;43.344;26.226;2023-05-23T11:55:21;98970.69;;;24.86;52.02
22653;BME280;11493;43.344;26.226;2023-05-23T11:57:49;98971.00;;;24.96;54.24
22653;BME280;11493;43.344;26.226;2023-05-23T12:00:18;98974.59;;;25.00;53.29
22653;BME280;11493;43.344;26.226;2023-05-23T12:02:45;98974.78;;;25.16;51.98
22653;BME280;11493;43.344;26.226;2023-05-23T12:05:16;98960.94;;;25.29;50.85
22653;BME280;11493;43.344;26.226;2023-05-23T12:07:48;98964.72;;;25.45;51.18
22653;BME280;11493;43.344;26.226;2023-05-23T12:10:16;98963.19;;;25.41;52.68
22653;BME280;11493;43.344;26.226;2023-05-23T12:12:44;98950.25;;;25.43;50.97
22653;BME280;11493;43.344;26.226;2023-05-23T12:15:11;98961.56;;;25.13;50.93
22653;BME280;11493;43.344;26.226;2023-05-23T12:17:45;98946.16;;;24.87;50.70
22653;BME280;11493;43.344;26.226;2023-05-23T12:20:13;98942.75;;;25.33;51.51
22653;BME280;11493;43.344;26.226;2023-05-23T12:22:41;98936.88;;;25.51;50.33
22653;BME280;11493;43.344;26.226;2023-05-23T12:25:08;98927.69;;;25.47;51.89
22653;BME280;11493;43.344;26.226;2023-05-23T12:27:40;98936.88;;;25.51;50.67
22653;BME280;11493;43.344;26.226;2023-05-23T12:30:14;98922.47;;;25.18;51.08
22653;BME280;11493;43.344;26.226;2023-05-23T12:32:44;98928.91;;;25.19;51.39
22653;BME280;11493;43.344;26.226;2023-05-23T12:35:14;98943.41;;;25.17;51.17
22653;BME280;11493;43.344;26.226;2023-05-23T12:37:45;98940.75;;;25.34;50.83
22653;BME280;11493;43.344;26.226;2023-05-23T12:40:17;98929.66;;;25.23;50.32
22653;BME280;11493;43.344;26.226;2023-05-23T12:42:54;98938.91;;;25.24;50.67
22653;BME280;11493;43.344;26.226;2023-05-23T12:45:32;98920.69;;;24.64;50.30
22653;BME280;11493;43.344;26.226;2023-05-23T12:48:01;98934.72;;;25.05;51.51
22653;BME280;11493;43.344;26.226;2023-05-23T12:50:29;98915.25;;;25.17;51.99
22653;BME280;11493;43.344;26.226;2023-05-23T12:52:57;98931.03;;;25.38;51.91
22653;BME280;11493;43.344;26.226;2023-05-23T12:55:24;98917.22;;;25.47;52.10
22653;BME280;11493;43.344;26.226;2023-05-23T12:57:52;98924.69;;;25.31;50.39
22653;BME280;11493;43.344;26.226;2023-05-23T13:00:20;98922.47;;;25.18;48.26
22653;BME280;11493;43.344;26.226;2023-05-23T13:02:47;98922.75;;;24.97;49.68
22653;BME280;11493;43.344;26.226;2023-05-23T13:05:16;98917.31;;;24.79;49.35
22653;BME280;11493;43.344;26.226;2023-05-23T13:07:46;98916.59;;;24.72;49.33
22653;BME280;11493;43.344;26.226;2023-05-23T13:10:13;98921.00;;;24.73;51.20
22653;BME280;11493;43.344;26.226;2023-05-23T13:12:41;98903.69;;;24.74;49.46
22653;BME280;11493;43.344;26.226;2023-05-23T13:15:09;98905.41;;;24.31;50.52
22653;BME280;11493;43.344;26.226;2023-05-23T13:17:38;98921.19;;;24.17;50.34
22653;BME280;11493;43.344;26.226;2023-05-23T13:20:06;98921.66;;;24.09;51.08
22653;BME280;11493;43.344;26.226;2023-05-23T13:22:35;98924.50;;;24.05;51.63
22653;BME280;11493;43.344;26.226;2023-05-23T13:25:02;98911.50;;;24.26;51.57